Time;durP1;ratioP1;P1;durP2;ratioP2;P2;SDS_P1;SDS_P2;PMS_P1;PMS_P2;Temp;Humidity;BMP_temperature;BMP_pressure;BME280_temperature;BME280_humidity;BME280_pressure;Samples;Min_cycle;Max_cycle;Signal;HPM_P1;HPM_P2
2022/05/14 00:01:02;;;;;;;1.20;1.00;;;25.30;55.50;;;;;;5006341;28;20518;-86
2022/05/14 00:03:29;;;;;;;1.50;1.23;;;25.30;55.50;;;;;;5007133;28;20408;-86
2022/05/14 00:05:58;;;;;;;1.30;1.10;;;25.30;55.40;;;;;;5006057;28;20416;-86
2022/05/14 00:08:25;;;;;;;2.47;1.20;;;25.30;56.00;;;;;;5006641;28;20410;-86
2022/05/14 00:13:36;;;;;;;1.80;1.70;;;25.30;55.40;;;;;;5007690;28;20445;-86
2022/05/14 00:16:03;;;;;;;1.20;0.97;;;25.30;55.40;;;;;;5007278;28;20413;-86
2022/05/14 00:18:29;;;;;;;1.13;0.83;;;25.30;55.50;;;;;;5007195;28;20925;-86
2022/05/14 00:20:55;;;;;;;1.63;1.10;;;25.30;55.40;;;;;;5007834;28;20408;-86
2022/05/14 00:23:21;;;;;;;1.30;1.00;;;25.30;55.40;;;;;;5007151;28;20469;-86
2022/05/14 00:29:09;;;;;;;1.87;0.83;;;25.40;55.50;;;;;;5006656;28;20165;-86
2022/05/14 00:31:35;;;;;;;1.50;1.17;;;25.30;55.50;;;;;;5007369;28;20408;-86
2022/05/14 00:34:02;;;;;;;1.13;0.90;;;25.30;55.50;;;;;;5006118;28;20416;-86
2022/05/14 00:36:28;;;;;;;1.60;1.10;;;25.30;55.50;;;;;;5005079;28;20432;-86
2022/05/14 00:38:54;;;;;;;1.60;1.00;;;25.30;55.50;;;;;;5007046;28;20408;-86
2022/05/14 00:41:20;;;;;;;1.20;1.00;;;25.30;55.50;;;;;;5005742;28;20222;-86
2022/05/14 00:43:50;;;;;;;1.10;1.00;;;25.30;55.40;;;;;;5006188;28;20425;-86
2022/05/14 00:46:32;;;;;;;1.40;1.00;;;25.30;55.40;;;;;;5005546;28;20428;-86
2022/05/14 00:48:59;;;;;;;1.20;0.90;;;25.30;55.40;;;;;;5007190;28;20401;-86
2022/05/14 00:51:28;;;;;;;1.90;0.97;;;25.30;55.50;;;;;;5006919;28;20423;-86
2022/05/14 00:54:05;;;;;;;2.00;1.10;;;25.30;55.50;;;;;;5005398;28;20420;-86
2022/05/14 00:56:46;;;;;;;1.43;0.90;;;25.30;55.40;;;;;;5006671;28;20400;-86
2022/05/14 00:59:15;;;;;;;1.27;1.10;;;25.30;55.50;;;;;;5005496;28;20416;-86
2022/05/14 01:01:42;;;;;;;1.80;1.20;;;25.30;55.40;;;;;;5004939;28;20961;-86
2022/05/14 01:04:08;;;;;;;1.37;1.10;;;25.30;55.50;;;;;;5006026;28;20420;-86
2022/05/14 01:06:36;;;;;;;1.73;1.07;;;25.30;55.40;;;;;;5005638;28;20435;-86
2022/05/14 01:09:05;;;;;;;1.83;1.23;;;25.30;55.40;;;;;;5006571;28;20400;-86
2022/05/14 01:11:33;;;;;;;1.37;1.07;;;25.30;55.40;;;;;;5004914;28;20421;-86
2022/05/14 01:13:59;;;;;;;1.40;1.10;;;25.30;55.90;;;;;;5004657;28;20443;-86
2022/05/14 01:16:24;;;;;;;1.50;0.90;;;25.30;55.40;;;;;;5005119;28;20428;-86
2022/05/14 01:18:50;;;;;;;1.47;1.00;;;25.30;55.40;;;;;;5005524;28;20202;-86
2022/05/14 01:27:30;;;;;;;1.10;1.00;;;25.30;55.50;;;;;;5006090;28;20964;-86
2022/05/14 01:29:59;;;;;;;1.13;1.00;;;25.30;55.50;;;;;;5005230;28;20438;-86
2022/05/14 01:32:24;;;;;;;1.10;1.00;;;25.30;55.50;;;;;;5004636;28;20427;-86
2022/05/14 01:34:54;;;;;;;1.10;1.00;;;25.30;55.50;;;;;;5004517;28;20417;-87
2022/05/14 01:37:20;;;;;;;1.57;1.10;;;25.30;55.50;;;;;;5004524;28;20203;-86
2022/05/14 01:39:49;;;;;;;1.77;1.10;;;25.30;55.50;;;;;;5004521;28;20477;-86
2022/05/14 01:42:18;;;;;;;2.37;1.13;;;25.30;55.50;;;;;;5005308;28;20456;-86
2022/05/14 01:44:44;;;;;;;1.63;1.30;;;25.30;55.50;;;;;;5006508;28;20412;-89
2022/05/14 01:47:10;;;;;;;1.07;0.80;;;25.30;55.50;;;;;;5005723;28;20417;-89
2022/05/14 01:49:36;;;;;;;1.53;1.10;;;25.30;55.50;;;;;;5005216;28;20440;-89
2022/05/14 01:52:04;;;;;;;1.40;1.00;;;25.30;55.50;;;;;;5005369;28;20478;-89
2022/05/14 01:54:30;;;;;;;1.20;1.00;;;25.30;55.50;;;;;;5005257;28;20413;-88
2022/05/14 01:56:55;;;;;;;1.20;0.93;;;25.40;55.50;;;;;;5005085;28;20431;-89
2022/05/14 01:59:21;;;;;;;1.40;1.00;;;25.30;55.40;;;;;;4987585;28;20177;-89
2022/05/14 02:01:47;;;;;;;1.10;1.00;;;25.30;55.40;;;;;;4986555;28;20232;-89
2022/05/14 02:04:15;;;;;;;1.43;1.10;;;25.30;55.40;;;;;;4985563;28;20181;-88
2022/05/14 02:06:43;;;;;;;1.43;0.90;;;25.30;55.40;;;;;;4985833;28;20200;-89
2022/05/14 02:09:12;;;;;;;1.30;1.00;;;25.30;55.40;;;;;;4986450;28;20413;-89
2022/05/14 02:11:39;;;;;;;1.20;0.90;;;25.30;55.40;;;;;;4984856;28;20445;-89
2022/05/14 02:14:05;;;;;;;1.20;0.90;;;25.30;55.40;;;;;;4985249;28;20417;-89
2022/05/14 02:16:31;;;;;;;1.20;0.90;;;25.30;55.40;;;;;;4987218;28;20424;-89
2022/05/14 02:18:59;;;;;;;1.10;1.00;;;25.40;55.50;;;;;;5000728;28;20428;-88
2022/05/14 02:21:26;;;;;;;1.30;0.97;;;25.30;55.40;;;;;;5004579;28;20256;-88
2022/05/14 02:23:53;;;;;;;1.43;0.80;;;25.30;55.40;;;;;;4991872;28;20441;-88
2022/05/14 02:26:19;;;;;;;1.60;1.20;;;25.30;55.40;;;;;;4984717;28;20432;-88
2022/05/14 02:28:45;;;;;;;1.17;1.00;;;25.30;55.40;;;;;;4985324;28;20413;-89
2022/05/14 02:31:11;;;;;;;1.30;1.07;;;25.30;55.40;;;;;;4986256;28;20448;-89
2022/05/14 02:33:38;;;;;;;1.10;0.90;;;25.30;55.40;;;;;;4985537;28;20940;-87
2022/05/14 02:36:05;;;;;;;1.20;0.90;;;25.30;55.40;;;;;;4984755;28;20454;-87
2022/05/14 02:38:32;;;;;;;1.20;0.90;;;25.30;55.40;;;;;;4985040;28;20813;-87
2022/05/14 02:40:58;;;;;;;1.97;1.00;;;25.30;55.40;;;;;;4985200;28;20410;-87
2022/05/14 02:43:24;;;;;;;2.03;1.23;;;25.30;55.40;;;;;;4986473;28;20417;-86
2022/05/14 02:45:50;;;;;;;1.30;1.00;;;25.30;55.40;;;;;;4984878;28;20421;-87
2022/05/14 02:48:16;;;;;;;1.20;1.00;;;25.30;55.40;;;;;;4984975;28;20460;-87
2022/05/14 02:50:42;;;;;;;1.07;0.90;;;25.30;55.40;;;;;;4985248;28;20651;-87
2022/05/14 02:53:08;;;;;;;1.53;1.20;;;25.30;55.40;;;;;;4984981;28;20217;-88
2022/05/14 02:55:35;;;;;;;1.40;1.00;;;25.30;55.40;;;;;;4985074;28;20199;-89
2022/05/14 02:58:01;;;;;;;1.10;1.00;;;25.30;55.40;;;;;;4984687;28;20521;-89
2022/05/14 03:00:27;;;;;;;0.90;0.70;;;25.30;55.40;;;;;;4984976;28;20421;-89
2022/05/14 03:02:53;;;;;;;1.50;1.10;;;25.30;55.40;;;;;;4984972;28;20273;-88
2022/05/14 03:05:20;;;;;;;1.10;0.93;;;25.30;55.40;;;;;;4984386;28;20425;-89
2022/05/14 03:07:46;;;;;;;1.47;1.20;;;25.30;55.40;;;;;;4984628;28;20276;-89
2022/05/14 03:10:13;;;;;;;0.97;0.80;;;25.30;55.40;;;;;;4985218;28;20451;-88
2022/05/14 03:12:39;;;;;;;1.43;1.10;;;25.30;55.40;;;;;;4984979;28;20772;-88
2022/05/14 03:15:07;;;;;;;1.70;1.10;;;25.30;55.40;;;;;;4983792;28;20421;-88
2022/05/14 03:17:34;;;;;;;1.27;1.07;;;25.30;55.50;;;;;;4969226;28;20437;-88
2022/05/14 03:20:01;;;;;;;1.00;0.70;;;25.30;55.40;;;;;;4985690;28;20439;-89
2022/05/14 03:22:27;;;;;;;1.50;1.00;;;25.30;55.40;;;;;;4984847;28;20465;-89
2022/05/14 03:24:53;;;;;;;1.17;1.07;;;25.30;55.40;;;;;;4987841;28;20445;-89
2022/05/14 03:27:50;;;;;;;1.27;1.00;;;25.30;55.40;;;;;;4988265;28;20425;-89
2022/05/14 03:30:16;;;;;;;1.30;0.90;;;25.30;55.40;;;;;;4989262;28;20188;-89
2022/05/14 03:32:42;;;;;;;1.10;0.90;;;25.30;55.40;;;;;;4988002;28;20420;-89
2022/05/14 03:35:08;;;;;;;2.20;1.30;;;25.30;55.50;;;;;;4989182;28;20174;-89
2022/05/14 03:37:35;;;;;;;1.60;1.43;;;25.30;55.50;;;;;;4988600;28;20212;-89
2022/05/14 03:40:02;;;;;;;1.60;1.30;;;25.30;55.50;;;;;;4988170;28;20444;-88
2022/05/14 03:42:28;;;;;;;1.30;0.90;;;25.30;55.50;;;;;;4987517;28;20463;-89
2022/05/14 03:44:54;;;;;;;0.97;0.80;;;25.30;55.40;;;;;;4987899;28;20821;-87
2022/05/14 03:47:20;;;;;;;3.10;1.30;;;25.30;55.40;;;;;;4989003;28;20151;-88
2022/05/14 03:49:46;;;;;;;1.03;0.90;;;25.30;55.40;;;;;;4988415;28;20455;-89
2022/05/14 03:52:12;;;;;;;1.10;0.83;;;25.30;55.40;;;;;;5018459;28;20205;-88
2022/05/14 03:54:38;;;;;;;1.13;0.80;;;25.30;55.40;;;;;;5082214;28;20427;-88
2022/05/14 03:57:06;;;;;;;1.20;0.90;;;25.30;55.50;;;;;;5038826;28;20982;-89
2022/05/14 03:59:33;;;;;;;1.10;1.00;;;25.30;55.40;;;;;;5008449;28;20416;-88
2022/05/14 04:01:59;;;;;;;1.83;1.07;;;25.30;55.40;;;;;;5007205;28;20487;-88
2022/05/14 04:04:26;;;;;;;1.30;1.20;;;25.30;55.40;;;;;;5006124;28;20506;-89
2022/05/14 04:06:52;;;;;;;1.30;1.00;;;25.30;55.40;;;;;;5007139;28;20420;-88
2022/05/14 04:09:18;;;;;;;1.17;0.80;;;25.30;55.40;;;;;;5023434;28;20938;-88
2022/05/14 04:15:06;;;;;;;1.37;1.07;;;25.40;55.50;;;;;;5007755;28;20181;-88
2022/05/14 04:17:32;;;;;;;1.20;0.90;;;25.30;55.50;;;;;;5006945;28;20442;-88
2022/05/14 04:20:08;;;;;;;1.63;0.90;;;25.30;55.50;;;;;;5005571;28;20459;-88
2022/05/14 04:22:34;;;;;;;1.93;1.00;;;25.30;55.50;;;;;;5008108;28;20218;-88
2022/05/14 04:25:00;;;;;;;1.00;0.80;;;25.30;55.50;;;;;;4994727;28;20457;-89
2022/05/14 04:27:26;;;;;;;1.50;1.10;;;25.30;55.50;;;;;;4995736;28;20450;-89
2022/05/14 04:29:52;;;;;;;1.20;1.00;;;25.30;55.50;;;;;;5023263;28;20421;-89
2022/05/14 04:32:18;;;;;;;1.47;1.00;;;25.30;55.40;;;;;;5022256;28;20428;-89
2022/05/14 04:34:45;;;;;;;0.90;0.70;;;25.30;55.40;;;;;;5004746;28;20190;-89
2022/05/14 04:37:11;;;;;;;1.43;1.00;;;25.40;55.50;;;;;;5002454;28;20420;-88
2022/05/14 04:39:37;;;;;;;1.77;1.13;;;25.30;55.40;;;;;;5006366;28;20432;-88
2022/05/14 04:42:07;;;;;;;1.33;1.00;;;25.30;55.40;;;;;;4999912;28;20459;-88
2022/05/14 04:44:34;;;;;;;1.23;0.90;;;25.30;56.00;;;;;;5007293;28;20420;-89
2022/05/14 04:47:00;;;;;;;1.20;0.80;;;25.40;55.50;;;;;;5007886;28;20821;-88
2022/05/14 04:49:27;;;;;;;1.23;0.90;;;25.40;55.50;;;;;;5006812;28;20519;-88
2022/05/14 04:51:54;;;;;;;1.47;1.00;;;25.40;55.50;;;;;;5006607;28;20459;-88
2022/05/14 04:54:20;;;;;;;1.10;1.00;;;25.40;55.50;;;;;;5006020;28;20435;-88
2022/05/14 04:56:46;;;;;;;1.20;0.80;;;25.40;55.50;;;;;;5006926;28;20802;-89
2022/05/14 04:59:13;;;;;;;1.30;0.93;;;25.40;55.50;;;;;;5005391;28;20428;-88
2022/05/14 05:03:16;;;;;;;1.17;0.97;;;25.40;55.50;;;;;;5006047;28;20463;-88
2022/05/14 05:04:33;;;;;;;1.03;0.80;;;25.40;55.40;;;;;;5006865;28;20906;-87
2022/05/14 05:06:59;;;;;;;1.00;0.80;;;25.40;55.50;;;;;;5007060;28;20468;-87
2022/05/14 05:12:56;;;;;;;1.20;1.10;;;25.40;55.40;;;;;;5007127;28;20169;-87
2022/05/14 05:15:24;;;;;;;1.20;0.90;;;25.40;55.50;;;;;;5006651;28;20416;-87
2022/05/14 05:17:49;;;;;;;1.10;0.87;;;25.40;55.50;;;;;;5005985;28;20464;-87
2022/05/14 05:20:15;;;;;;;1.10;0.80;;;25.40;55.50;;;;;;5007059;28;20423;-88
2022/05/14 05:22:41;;;;;;;0.90;0.80;;;25.40;55.50;;;;;;5005133;28;20208;-87
2022/05/14 05:25:09;;;;;;;1.10;0.80;;;25.40;55.40;;;;;;5005478;28;20185;-87
2022/05/14 05:27:37;;;;;;;1.70;0.87;;;25.40;55.40;;;;;;5006636;28;20180;-87
2022/05/14 05:30:04;;;;;;;1.20;0.90;;;25.40;55.40;;;;;;4989676;28;20455;-87
2022/05/14 05:32:30;;;;;;;1.10;1.00;;;25.50;55.50;;;;;;5005382;28;20420;-87
2022/05/14 05:34:56;;;;;;;1.53;1.00;;;25.50;55.50;;;;;;5005859;28;20431;-87
2022/05/14 05:37:22;;;;;;;1.20;0.80;;;25.50;55.50;;;;;;5006976;28;20419;-87
2022/05/14 05:39:48;;;;;;;1.47;0.80;;;25.50;55.40;;;;;;5005770;28;20248;-87
2022/05/14 05:42:13;;;;;;;1.20;0.87;;;25.50;55.40;;;;;;5006890;28;20197;-87
2022/05/14 05:44:39;;;;;;;1.37;0.93;;;25.50;55.40;;;;;;5006362;28;20272;-88
2022/05/14 05:47:06;;;;;;;1.60;0.87;;;25.50;55.40;;;;;;5005988;28;20197;-89
2022/05/14 05:49:40;;;;;;;1.33;0.90;;;25.50;55.40;;;;;;5005659;28;20244;-89
2022/05/14 05:52:06;;;;;;;0.90;0.80;;;25.50;55.50;;;;;;5005295;28;20945;-89
2022/05/14 05:57:16;;;;;;;1.10;1.00;;;25.50;55.40;;;;;;5006085;28;20510;-89
2022/05/14 05:59:42;;;;;;;0.90;0.70;;;25.50;55.40;;;;;;5004948;28;20436;-88
2022/05/14 06:02:08;;;;;;;1.00;0.80;;;25.50;55.50;;;;;;5005877;28;20224;-87
2022/05/14 06:04:35;;;;;;;1.20;0.90;;;25.50;55.40;;;;;;5006538;28;20177;-88
2022/05/14 06:07:02;;;;;;;1.60;0.87;;;25.50;55.40;;;;;;4990405;28;20178;-88
2022/05/14 06:09:30;;;;;;;1.37;0.97;;;25.50;55.40;;;;;;5020881;28;20431;-87
2022/05/14 06:12:01;;;;;;;1.00;0.90;;;25.50;55.40;;;;;;5004894;28;20416;-88
2022/05/14 06:14:27;;;;;;;1.00;0.80;;;25.50;55.40;;;;;;5006329;28;20461;-89
2022/05/14 06:16:53;;;;;;;1.20;0.90;;;25.50;55.40;;;;;;5004760;28;20424;-88
2022/05/14 06:19:20;;;;;;;1.10;0.90;;;25.50;55.40;;;;;;5004705;28;20296;-88
2022/05/14 06:21:46;;;;;;;1.30;1.10;;;25.50;55.40;;;;;;5004802;28;20459;-88
2022/05/14 06:24:12;;;;;;;1.30;0.80;;;25.50;55.40;;;;;;4984915;28;20452;-89
2022/05/14 06:26:38;;;;;;;1.10;0.90;;;25.50;55.40;;;;;;4992876;28;20196;-88
2022/05/14 06:29:16;;;;;;;1.37;1.10;;;25.50;55.50;;;;;;5005212;28;20189;-88
2022/05/14 06:31:41;;;;;;;1.10;1.00;;;25.60;55.50;;;;;;5004782;28;20189;-88
2022/05/14 06:34:07;;;;;;;1.00;0.80;;;25.50;55.50;;;;;;5004867;28;20428;-89
2022/05/14 06:43:27;;;;;;;1.27;1.00;;;25.50;55.50;;;;;;4992827;28;20468;-88
2022/05/14 06:45:53;;;;;;;1.00;0.80;;;25.50;55.60;;;;;;4985847;28;20409;-88
2022/05/14 06:48:19;;;;;;;1.10;0.87;;;25.50;55.60;;;;;;4985204;28;20869;-88
2022/05/14 06:50:49;;;;;;;1.87;0.97;;;25.50;55.60;;;;;;4986012;28;20247;-89
2022/05/14 06:53:17;;;;;;;1.10;0.80;;;25.50;55.60;;;;;;4985782;28;20188;-89
2022/05/14 06:55:44;;;;;;;1.00;0.90;;;25.50;55.60;;;;;;5000532;28;20457;-88
2022/05/14 06:58:13;;;;;;;0.90;0.70;;;25.50;55.60;;;;;;5004782;28;20949;-89
2022/05/14 07:00:39;;;;;;;0.97;0.87;;;25.50;55.60;;;;;;5007921;28;20469;-87
2022/05/14 07:08:33;;;;;;;1.23;0.80;;;25.50;55.50;;;;;;5010224;28;20395;-88
2022/05/14 07:11:02;;;;;;;1.50;0.80;;;25.60;55.60;;;;;;5009208;28;20405;-88
2022/05/14 07:13:28;;;;;;;1.00;0.83;;;25.50;55.60;;;;;;5007883;28;20184;-89
2022/05/14 07:15:54;;;;;;;1.10;0.90;;;25.50;55.60;;;;;;5008022;28;20427;-88
2022/05/14 07:18:20;;;;;;;1.20;0.90;;;25.60;55.60;;;;;;5009770;28;20423;-88
2022/05/14 07:20:57;;;;;;;1.20;1.03;;;25.60;55.60;;;;;;5009692;28;20400;-88
2022/05/14 07:23:22;;;;;;;1.00;0.90;;;25.60;55.60;;;;;;5008630;28;20196;-88
2022/05/14 07:25:48;;;;;;;1.50;1.07;;;25.60;55.60;;;;;;5009023;28;20413;-88
2022/05/14 07:28:14;;;;;;;1.33;1.07;;;25.60;55.60;;;;;;5007869;28;20181;-88
2022/05/14 07:30:40;;;;;;;1.07;0.97;;;25.60;55.60;;;;;;5008989;28;20416;-88
2022/05/14 07:33:06;;;;;;;1.20;0.70;;;25.60;55.60;;;;;;5009662;28;20260;-88
2022/05/14 07:35:33;;;;;;;1.20;0.90;;;25.60;55.70;;;;;;5008496;28;20173;-88
2022/05/14 07:38:02;;;;;;;1.20;1.00;;;25.60;55.60;;;;;;5009595;28;20181;-88
2022/05/14 07:40:31;;;;;;;1.33;0.87;;;25.60;55.60;;;;;;5007786;28;20452;-88
2022/05/14 07:43:22;;;;;;;2.23;1.10;;;25.60;55.60;;;;;;5008922;28;20487;-88
2022/05/14 07:45:55;;;;;;;1.07;0.97;;;25.60;55.60;;;;;;4971737;28;20520;-88
2022/05/14 07:48:26;;;;;;;2.53;0.83;;;25.60;55.70;;;;;;4972241;28;20428;-88
2022/05/14 07:50:52;;;;;;;1.20;0.80;;;25.60;55.70;;;;;;4987907;28;20413;-88
2022/05/14 07:53:18;;;;;;;2.60;0.90;;;25.60;55.70;;;;;;4971501;28;20451;-87
2022/05/14 07:55:45;;;;;;;1.90;0.90;;;25.60;55.70;;;;;;4972105;28;20433;-87
2022/05/14 07:58:19;;;;;;;1.57;0.90;;;25.60;55.70;;;;;;4971286;28;20472;-88
2022/05/14 08:00:45;;;;;;;1.77;1.10;;;25.60;55.70;;;;;;4963478;28;20437;-87
2022/05/14 08:03:12;;;;;;;1.13;0.90;;;25.60;55.70;;;;;;4968910;29;20472;-88
2022/05/14 08:05:37;;;;;;;1.30;1.00;;;25.60;55.70;;;;;;4952983;29;20476;-88
2022/05/14 08:08:03;;;;;;;1.40;0.90;;;25.60;55.70;;;;;;4953031;29;20469;-88
2022/05/14 08:10:37;;;;;;;1.40;1.00;;;25.60;55.70;;;;;;4952520;29;20194;-87
2022/05/14 08:13:03;;;;;;;1.30;0.90;;;25.60;55.70;;;;;;4968588;29;20437;-88
2022/05/14 08:15:29;;;;;;;1.10;0.93;;;25.60;55.70;;;;;;4952861;29;21193;-88
2022/05/14 08:17:55;;;;;;;2.07;0.77;;;25.60;55.70;;;;;;4952246;29;20433;-89
2022/05/14 08:20:22;;;;;;;1.50;0.90;;;25.60;55.70;;;;;;4968195;29;20422;-89
2022/05/14 08:25:32;;;;;;;1.20;0.90;;;25.60;55.70;;;;;;5006624;28;21035;-88
2022/05/14 08:27:58;;;;;;;1.10;1.00;;;25.60;55.70;;;;;;5008296;28;20466;-88
2022/05/14 08:30:53;;;;;;;1.43;1.00;;;25.60;55.70;;;;;;5007752;28;20424;-88
2022/05/14 08:33:19;;;;;;;2.00;1.17;;;25.60;55.70;;;;;;5007618;28;20748;-86
2022/05/14 08:35:46;;;;;;;1.63;1.30;;;25.60;55.70;;;;;;5007076;28;20421;-87
2022/05/14 08:38:15;;;;;;;1.37;1.10;;;25.60;55.70;;;;;;4991744;28;20450;-87
2022/05/14 08:40:57;;;;;;;1.53;1.00;;;25.60;55.70;;;;;;5007973;28;20484;-87
2022/05/14 08:43:32;;;;;;;1.80;1.20;;;25.60;55.70;;;;;;5007701;28;20467;-87
2022/05/14 08:45:59;;;;;;;1.87;1.07;;;25.60;55.70;;;;;;5007595;28;20420;-88
2022/05/14 08:48:29;;;;;;;1.37;1.10;;;25.60;55.70;;;;;;5008364;28;20408;-88
2022/05/14 08:51:10;;;;;;;5.23;1.10;;;25.60;55.70;;;;;;5007224;28;20413;-88
2022/05/14 08:53:38;;;;;;;1.53;0.80;;;25.60;55.80;;;;;;5007025;28;20512;-87
2022/05/14 08:56:15;;;;;;;2.03;1.30;;;25.60;55.80;;;;;;5008131;28;20429;-88
2022/05/14 08:58:56;;;;;;;2.07;1.00;;;25.60;55.80;;;;;;5008490;28;20412;-87
2022/05/14 09:01:26;;;;;;;1.40;0.90;;;25.60;55.80;;;;;;5003957;28;20634;-87
2022/05/14 09:03:52;;;;;;;2.20;1.10;;;25.60;55.80;;;;;;4997475;28;20469;-87
2022/05/14 09:06:19;;;;;;;1.30;1.07;;;25.60;55.80;;;;;;4988477;28;20416;-89
2022/05/14 09:08:45;;;;;;;1.73;1.20;;;25.60;55.80;;;;;;4987510;28;20475;-89
2022/05/14 09:11:40;;;;;;;1.47;1.10;;;25.60;55.80;;;;;;4986760;28;20414;-89
2022/05/14 09:14:35;;;;;;;2.70;1.30;;;25.60;55.80;;;;;;4997181;28;20421;-87
2022/05/14 09:17:23;;;;;;;1.93;1.10;;;25.60;55.90;;;;;;5004943;28;20412;-86
2022/05/14 09:19:52;;;;;;;1.93;1.33;;;25.60;55.90;;;;;;5004964;28;20408;-87
2022/05/14 09:22:39;;;;;;;1.53;1.30;;;25.60;55.90;;;;;;5002200;28;20449;-87
2022/05/14 09:25:07;;;;;;;1.93;1.73;;;25.60;55.90;;;;;;4996553;28;20406;-86
2022/05/14 09:27:42;;;;;;;1.90;1.30;;;25.60;55.90;;;;;;5006424;28;20439;-87
2022/05/14 09:30:13;;;;;;;1.40;1.30;;;25.60;55.90;;;;;;5006424;28;20427;-87
2022/05/14 09:32:42;;;;;;;2.97;1.30;;;25.60;55.90;;;;;;5005603;28;20424;-88
2022/05/14 09:35:10;;;;;;;3.60;1.40;;;25.60;55.90;;;;;;5005493;28;20484;-87
2022/05/14 09:37:36;;;;;;;1.80;1.50;;;25.60;55.90;;;;;;5004533;28;20432;-87
2022/05/14 09:40:12;;;;;;;1.60;1.30;;;25.60;55.90;;;;;;5006367;28;20432;-87
2022/05/14 09:42:45;;;;;;;3.33;1.30;;;25.60;55.80;;;;;;5007177;28;20865;-87
2022/05/14 09:45:21;;;;;;;2.50;1.20;;;25.60;55.80;;;;;;5006166;28;20791;-87
2022/05/14 09:47:48;;;;;;;3.67;1.40;;;25.60;55.80;;;;;;5001239;28;20492;-87
2022/05/14 09:50:31;;;;;;;2.07;1.50;;;25.60;55.80;;;;;;5005784;28;20512;-87
2022/05/14 09:53:05;;;;;;;1.90;1.53;;;25.60;55.70;;;;;;5005705;28;20448;-87
2022/05/14 09:56:02;;;;;;;2.10;1.40;;;25.60;55.70;;;;;;5006186;28;20432;-87
2022/05/14 09:58:48;;;;;;;1.40;1.30;;;25.60;55.70;;;;;;5005910;28;20432;-87
2022/05/14 10:01:19;;;;;;;3.33;1.50;;;25.60;55.70;;;;;;5005595;28;20432;-87
2022/05/14 10:03:59;;;;;;;3.67;1.93;;;25.60;55.60;;;;;;5001958;28;20448;-87
2022/05/14 10:06:47;;;;;;;1.60;1.50;;;25.60;55.60;;;;;;5019823;28;20420;-87
2022/05/14 10:09:57;;;;;;;1.97;1.77;;;25.60;55.50;;;;;;5003211;28;20424;-87
2022/05/14 10:12:29;;;;;;;2.33;1.83;;;25.60;55.50;;;;;;5006301;28;20432;-87
2022/05/14 10:15:32;;;;;;;2.17;1.87;;;25.60;55.50;;;;;;5002783;28;20425;-87
2022/05/14 10:18:29;;;;;;;3.47;1.97;;;25.60;55.40;;;;;;5003849;28;20455;-87
2022/05/14 10:21:19;;;;;;;1.90;1.70;;;25.60;55.40;;;;;;5005073;28;20481;-87
2022/05/14 10:27:25;;;;;;;2.23;1.80;;;25.60;55.50;;;;;;5002509;28;20452;-87
2022/05/14 10:30:00;;;;;;;2.60;2.00;;;25.50;55.50;;;;;;5064150;28;20412;-86
2022/05/14 10:32:30;;;;;;;2.10;1.77;;;25.50;55.50;;;;;;5018111;28;20416;-87
2022/05/14 10:35:11;;;;;;;2.43;2.10;;;25.50;55.50;;;;;;4996933;28;20416;-87
2022/05/14 10:37:53;;;;;;;1.93;1.60;;;25.50;55.40;;;;;;5000577;28;20496;-87
2022/05/14 10:40:42;;;;;;;2.27;1.90;;;25.50;55.40;;;;;;5004414;28;20416;-89
2022/05/14 10:43:24;;;;;;;1.53;1.40;;;25.50;55.40;;;;;;5003612;28;20495;-87
2022/05/14 10:45:54;;;;;;;2.20;2.00;;;25.50;55.40;;;;;;5004189;28;20416;-88
2022/05/14 10:48:48;;;;;;;2.00;1.80;;;25.50;55.40;;;;;;5003297;28;20428;-88
2022/05/14 10:51:21;;;;;;;2.13;1.80;;;25.50;55.40;;;;;;5005222;28;20392;-88
2022/05/14 10:53:47;;;;;;;2.67;2.00;;;25.50;55.40;;;;;;5005178;28;20431;-88
2022/05/14 10:56:32;;;;;;;4.80;1.37;;;25.50;55.40;;;;;;5005125;28;20412;-88
2022/05/14 10:59:03;;;;;;;2.40;1.87;;;25.50;55.30;;;;;;5009899;28;20416;-87
2022/05/14 11:01:53;;;;;;;2.23;1.57;;;25.50;55.30;;;;;;5004203;28;20420;-88
2022/05/14 11:04:28;;;;;;;3.13;1.50;;;25.50;55.30;;;;;;5004476;28;20492;-88
2022/05/14 11:07:01;;;;;;;1.90;1.63;;;25.50;55.30;;;;;;5005370;28;20479;-88
2022/05/14 11:09:39;;;;;;;2.50;1.77;;;25.50;55.30;;;;;;5004673;28;20774;-87
2022/05/14 11:12:08;;;;;;;2.73;1.90;;;25.50;55.30;;;;;;5005298;28;20800;-88
2022/05/14 11:14:44;;;;;;;2.00;1.80;;;25.50;55.30;;;;;;5004283;28;20446;-87
2022/05/14 11:17:24;;;;;;;2.07;1.60;;;25.50;55.30;;;;;;5004254;28;20420;-87
2022/05/14 11:20:06;;;;;;;2.70;1.70;;;25.50;55.30;;;;;;5004598;28;20423;-87
2022/05/14 11:22:52;;;;;;;2.07;1.83;;;25.50;55.30;;;;;;5032332;28;20455;-87
2022/05/14 11:25:22;;;;;;;3.80;1.77;;;25.50;55.30;;;;;;5107759;28;20408;-88
2022/05/14 11:35:01;;;;;;;2.67;1.60;;;25.50;55.30;;;;;;5065857;28;20423;-87
2022/05/14 11:37:30;;;;;;;2.67;1.60;;;25.40;55.30;;;;;;5048993;28;20408;-88
2022/05/14 11:40:14;;;;;;;2.00;1.37;;;25.40;55.30;;;;;;5050033;28;20413;-88
2022/05/14 11:42:40;;;;;;;2.60;1.60;;;25.40;55.30;;;;;;5065992;28;20453;-88
2022/05/14 11:45:18;;;;;;;3.30;1.80;;;25.40;55.30;;;;;;5068610;28;20900;-87
2022/05/14 11:47:50;;;;;;;1.90;1.60;;;25.40;55.30;;;;;;5068783;28;20409;-88
2022/05/14 11:50:18;;;;;;;1.80;1.57;;;25.40;55.30;;;;;;5052345;28;20405;-87
2022/05/14 11:53:15;;;;;;;2.37;1.70;;;25.40;55.30;;;;;;5070336;28;20435;-87
2022/05/14 11:55:57;;;;;;;2.83;1.60;;;25.40;55.30;;;;;;5069693;28;20481;-88
2022/05/14 11:58:32;;;;;;;2.20;1.40;;;25.40;55.30;;;;;;5053077;28;20464;-87
2022/05/14 12:01:04;;;;;;;2.20;1.80;;;25.40;55.30;;;;;;5069511;28;20470;-88
2022/05/14 12:03:44;;;;;;;7.60;1.90;;;25.40;55.30;;;;;;5052984;28;20441;-88
2022/05/14 12:06:48;;;;;;;1.73;1.30;;;25.50;55.30;;;;;;5052827;28;20421;-88
2022/05/14 12:09:45;;;;;;;2.03;1.90;;;25.40;55.30;;;;;;5110218;28;20427;-88
2022/05/14 12:12:34;;;;;;;2.63;1.50;;;25.40;55.30;;;;;;5110935;28;20416;-88
2022/05/14 12:15:22;;;;;;;1.43;1.33;;;25.40;55.30;;;;;;5110151;28;20429;-88
2022/05/14 12:17:49;;;;;;;1.87;1.50;;;25.40;55.30;;;;;;5111015;28;20393;-87
2022/05/14 12:20:33;;;;;;;4.03;1.43;;;25.40;55.30;;;;;;5110310;28;20399;-88
2022/05/14 12:23:02;;;;;;;2.60;1.77;;;25.40;55.30;;;;;;5110383;28;20463;-88
2022/05/14 12:25:48;;;;;;;2.10;1.90;;;25.40;55.30;;;;;;5109866;28;20412;-89
2022/05/14 12:28:42;;;;;;;3.40;2.00;;;25.40;55.30;;;;;;5110984;28;20407;-88
2022/05/14 12:34:12;;;;;;;1.80;1.63;;;25.40;55.20;;;;;;5110069;28;20391;-88
2022/05/14 12:36:45;;;;;;;3.27;1.70;;;25.40;55.30;;;;;;5108498;28;20404;-88
2022/05/14 12:39:19;;;;;;;2.27;1.70;;;25.40;55.30;;;;;;5109221;28;20404;-88
2022/05/14 12:41:57;;;;;;;2.17;1.60;;;25.40;55.30;;;;;;5109845;28;20482;-87
2022/05/14 12:44:34;;;;;;;1.90;1.70;;;25.40;55.30;;;;;;5110084;28;20408;-88
2022/05/14 12:47:03;;;;;;;2.23;1.70;;;25.40;55.30;;;;;;5109974;28;20390;-87
2022/05/14 12:49:46;;;;;;;2.57;1.40;;;25.40;55.30;;;;;;5109367;28;20404;-88
2022/05/14 12:52:18;;;;;;;2.30;1.53;;;25.40;55.30;;;;;;5109760;28;20450;-88
2022/05/14 12:54:58;;;;;;;1.63;1.50;;;25.40;55.30;;;;;;5109506;28;20388;-89
2022/05/14 12:57:29;;;;;;;2.53;1.40;;;25.40;55.30;;;;;;5062735;28;20767;-88
2022/05/14 12:59:56;;;;;;;1.57;1.27;;;25.40;55.30;;;;;;4986805;28;20856;-89
2022/05/14 13:02:36;;;;;;;1.73;1.40;;;25.40;55.20;;;;;;4987921;28;20950;-88
2022/05/14 13:05:09;;;;;;;2.23;1.60;;;25.40;55.30;;;;;;5002978;28;20420;-89
2022/05/14 13:07:54;;;;;;;4.83;1.47;;;25.40;55.30;;;;;;5002458;28;20418;-88
2022/05/14 13:10:26;;;;;;;1.87;1.67;;;25.40;55.30;;;;;;4994715;28;20459;-88
2022/05/14 13:12:56;;;;;;;4.20;1.47;;;25.40;55.30;;;;;;5004107;28;20435;-88
2022/05/14 13:15:43;;;;;;;2.10;1.37;;;25.40;55.30;;;;;;4994138;28;20436;-88
2022/05/14 13:18:12;;;;;;;1.90;1.27;;;25.40;55.30;;;;;;4995832;28;20519;-88
2022/05/14 13:20:38;;;;;;;4.80;1.93;;;25.40;55.30;;;;;;4990946;28;20920;-88
2022/05/14 13:23:16;;;;;;;1.93;1.67;;;25.40;55.30;;;;;;4990770;28;20471;-88
2022/05/14 13:25:49;;;;;;;2.67;2.40;;;25.40;55.30;;;;;;4997282;28;20436;-89
2022/05/14 13:28:30;;;;;;;3.70;1.77;;;25.40;55.30;;;;;;5005707;28;20440;-88
2022/05/14 13:30:56;;;;;;;3.50;1.60;;;25.40;55.30;;;;;;5004507;28;20432;-89
2022/05/14 13:33:34;;;;;;;2.00;1.47;;;25.40;55.30;;;;;;5005618;28;20449;-89
2022/05/14 13:39:04;;;;;;;1.77;1.53;;;25.40;55.30;;;;;;5006506;28;20434;-89
2022/05/14 13:41:42;;;;;;;2.20;1.43;;;25.40;55.40;;;;;;5004858;28;20561;-88
2022/05/14 13:44:21;;;;;;;2.00;1.70;;;25.40;55.40;;;;;;5004377;28;20428;-89
2022/05/14 13:46:57;;;;;;;1.47;1.37;;;25.40;55.40;;;;;;5004713;28;20535;-89
2022/05/14 13:49:30;;;;;;;2.10;1.80;;;25.40;55.40;;;;;;5004978;28;20495;-89
2022/05/14 13:51:58;;;;;;;2.40;1.87;;;25.40;55.40;;;;;;5003893;28;20443;-88
2022/05/14 13:54:32;;;;;;;2.43;1.57;;;25.40;55.40;;;;;;5005028;28;20452;-89
2022/05/14 13:57:00;;;;;;;2.47;1.80;;;25.40;55.40;;;;;;5004887;28;20481;-88
2022/05/14 13:59:35;;;;;;;3.10;1.53;;;25.40;55.40;;;;;;5001368;28;20428;-88
2022/05/14 14:02:10;;;;;;;1.80;1.63;;;25.40;55.40;;;;;;4997397;28;20451;-88